• Join FlightAware (Why Join?)
  • Login
  • US Flag 
01:53AM EDT


 

Airport Tracker/Info


-or-


 

Live Flight TrackerFlight Track Log ✈ N180KT ✈ 05-May-2013 ✈ KGSO - KRYY

Flight Track Log - Related Links

Times and Time Zones

All times are in EDT time to prevent confusion due to time zone crossing. See the N180KT flight status page for this flight to view local times or setup timezone preferences in your user account.

Time Position Orientation Groundspeed Altitude Reporting Facility
EDT Latitude Longitude Course Direction KTS MPH feet Rate Location/Type
05:06PM 36.0355 -80.2223 256° West  Level FlightAware Approximate
05:07PM 36.0326 -80.2719 260° West  Level FlightAware Approximate
05:08PM 36.0252 -80.3210 260° West  Level FlightAware Approximate
05:09PM 36.0179 -80.3701 260° West  Level FlightAware Approximate
05:09PM 36.1669 -80.3275 255° West 148 170 7,700  Level Atlanta Center
05:10PM 36.0106 -80.4193 260° West  Level FlightAware Approximate
05:10PM 36.1517 -80.3769 249° West 143 165 8,000  Level Atlanta Center
05:11PM 36.0032 -80.4684 260° West  Level FlightAware Approximate
05:11PM 36.1344 -80.4242 246° West 148 170 8,100  Level Atlanta Center
05:12PM 35.9958 -80.5175 259° West  Level FlightAware Approximate
05:12PM 36.1192 -80.4761 250° West 155 178 8,200  Level Atlanta Center
05:13PM 35.9884 -80.5666 259° West  Level FlightAware Approximate
05:13PM 36.1000 -80.5361 248° West 166 191 8,200  Level Atlanta Center
05:14PM 35.9799 -80.6153 255° West  Level FlightAware Approximate
05:14PM 36.0867 -80.5778 248° West 166 191 8,200  Level Atlanta Center
05:15PM 36.0697 -80.6428 252° West 178 205 8,200  Level Atlanta Center
05:16PM 36.0506 -80.7050 249° West 178 205 8,200  Level Atlanta Center
05:17PM 36.0311 -80.7625 247° West 178 205 8,200  Level Atlanta Center
05:18PM 36.0139 -80.8169 249° West 173 199 8,200  Level Atlanta Center
05:19PM 35.9967 -80.8717 249° West 173 199 8,200  Level Atlanta Center
05:20PM 35.9792 -80.9261 248° West 173 199 8,200 -60 Level Atlanta Center
05:22PM 35.9512 -81.0028 246° West  Level FlightAware Approximate
05:22PM 35.9442 -81.0328 246° West 173 199 8,100  Level Atlanta Center
05:23PM 35.9267 -81.0847 247° West 173 199 8,100  Level Atlanta Center
05:24PM 35.9092 -81.1392 248° West 173 199 8,100  Level Atlanta Center
05:25PM 35.8917 -81.1936 248° West 173 199 8,100  Level Atlanta Center
05:26PM 35.8742 -81.2456 247° West 173 199 8,100  Level Atlanta Center
05:27PM 35.8564 -81.2869 242° Southwest 168 193 8,100  Level Atlanta Center
05:28PM 35.8344 -81.3339 240° Southwest 160 184 8,100  Level Atlanta Center
05:29PM 35.8144 -81.3781 241° Southwest 160 184 8,100  Level Atlanta Center
05:30PM 35.7928 -81.4275 242° Southwest 160 184 8,100  Level Atlanta Center
05:31PM 35.7728 -81.4767 243° Southwest 166 191 8,100  Level Atlanta Center
05:32PM 35.7489 -81.5261 239° Southwest 166 191 8,100  Level Atlanta Center
05:33PM 35.7289 -81.5728 242° Southwest 166 191 8,100  Level Atlanta Center
05:34PM 35.7069 -81.6219 241° Southwest 166 191 8,100  Level Atlanta Center
05:35PM 35.6869 -81.6686 242° Southwest 161 185 8,100  Level Atlanta Center
05:36PM 35.6631 -81.7206 240° Southwest 166 191 8,100  Level Atlanta Center
05:37PM 35.6408 -81.7669 239° Southwest 166 191 8,100  Level Atlanta Center
05:38PM 35.6208 -81.8136 242° Southwest 160 184 8,100  Level Atlanta Center
05:39PM 35.5989 -81.8603 240° Southwest 165 190 8,100  Level Atlanta Center
05:40PM 35.5786 -81.9042 240° Southwest 160 184 8,100 -60 Level Atlanta Center
05:42PM 35.5386 -82.0022 243° Southwest 165 190 8,000 -60 Descending Atlanta Center
05:43PM 35.5144 -82.0486 237° Southwest 165 190 8,000 -60 Level Atlanta Center
05:44PM 35.4922 -82.0975 241° Southwest 165 190 7,900  Descending Atlanta Center
05:46PM 35.4519 -82.1853 241° Southwest 165 190 8,000  Climbing Atlanta Center
05:47PM 35.4317 -82.2367 244° Southwest 160 184 7,900 -60 Descending Atlanta Center
05:48PM 35.4114 -82.2806 240° Southwest 160 184 7,900  Level Atlanta Center
05:49PM 35.3850 -82.3167 228° Southwest 154 177 7,900  Level Atlanta Center
05:50PM 35.3583 -82.3556 230° Southwest 154 177 7,900  Level Atlanta Center
05:51PM 35.3317 -82.3917 228° Southwest 154 177 8,000  Climbing Atlanta Center
05:52PM 35.3031 -82.4381 233° Southwest 149 171 7,900 -60 Descending Atlanta Center
05:53PM 35.2744 -82.4792 230° Southwest 149 171 7,900  Level Atlanta Center
05:54PM 35.2478 -82.5128 226° Southwest 150 173 7,900  Level Atlanta Center
05:55PM 35.2253 -82.5489 233° Southwest 150 173 7,900  Level Atlanta Center
05:56PM 35.1944 -82.5875 226° Southwest 157 181 7,900  Level Atlanta Center
05:58PM 35.1411 -82.6647 230° Southwest 157 181 7,900  Level Atlanta Center
06:00PM 35.0917 -82.7367 230° Southwest 152 175 8,100 60 Climbing Atlanta Center
06:01PM 35.0669 -82.7700 228° Southwest 147 169 8,100  Level Atlanta Center
06:02PM 35.0422 -82.8083 232° Southwest 147 169 8,100  Level Atlanta Center
06:03PM 35.0178 -82.8467 232° Southwest 147 169 8,100  Level Atlanta Center
06:04PM 34.9908 -82.8828 228° Southwest 153 176 8,100  Level Atlanta Center
06:05PM 34.9642 -82.9211 230° Southwest 160 184 8,100  Level Atlanta Center
06:06PM 34.9353 -82.9644 231° Southwest 160 184 8,100  Level Atlanta Center
06:07PM 34.9086 -83.0003 228° Southwest 160 184 8,100  Level Atlanta Center
06:08PM 34.8817 -83.0436 233° Southwest 160 184 8,100  Level Atlanta Center
06:09PM 34.8528 -83.0844 229° Southwest 160 184 8,100  Level Atlanta Center
06:10PM 34.8239 -83.1253 229° Southwest 160 184 8,100  Level Atlanta Center
06:11PM 34.7928 -83.1661 227° Southwest 160 184 8,100  Level Atlanta Center
06:12PM 34.7661 -83.2069 232° Southwest 160 184 8,100  Level Atlanta Center
06:13PM 34.7372 -83.2503 231° Southwest 160 184 8,100  Level Atlanta Center
06:14PM 34.7061 -83.2933 229° Southwest 160 184 8,100  Level Atlanta Center
06:15PM 34.6750 -83.3289 223° Southwest 160 184 8,100  Level Atlanta Center
06:16PM 34.6439 -83.3597 219° Southwest 149 171 8,100  Level Atlanta Center
06:17PM 34.6108 -83.3978 223° Southwest 149 171 8,100  Level Atlanta Center
06:18PM 34.5775 -83.4333 221° Southwest 154 177 8,100  Level Atlanta Center
06:19PM 34.5464 -83.4664 221° Southwest 154 177 8,100  Level Atlanta Center
06:20PM 34.5153 -83.4992 221° Southwest 154 177 8,100  Level Atlanta Center
06:21PM 34.4819 -83.5347 221° Southwest 161 185 8,100 -300 Level Atlanta Center
06:22PM 34.4333 -83.6000 228° Southwest 171 197 7,400 -480 Descending Atlanta TRACON
06:23PM 34.4156 -83.6133 212° Southwest 156 180 7,200 -480 Descending Atlanta Center
06:24PM 34.3822 -83.6486 221° Southwest 166 191 6,800 -480 Descending Atlanta Center
06:25PM 34.3447 -83.6867 220° Southwest 171 197 6,300 -360 Descending Atlanta Center
06:26PM 34.3156 -83.7294 230° Southwest 166 191 6,100 -120 Descending Atlanta Center
06:27PM 34.3094 -83.7822 262° West 166 191 6,100  Level Atlanta Center
06:28PM 34.2928 -83.8325 248° West 166 191 6,100  Level Atlanta Center
06:29PM 34.2742 -83.8803 245° Southwest 166 191 6,100  Level Atlanta Center
06:30PM 34.2575 -83.9283 247° West 166 191 6,100  Level Atlanta Center
06:31PM 34.2408 -83.9786 248° West 166 191 6,100  Level Atlanta Center
06:32PM 34.2242 -84.0211 245° Southwest 161 185 6,100 -300 Level Atlanta Center
06:34PM 34.1833 -84.1333 246° West 153 176 5,200 -420 Descending Atlanta TRACON
06:35PM 34.1667 -84.1833 248° West 155 178 4,700 -540 Descending Atlanta TRACON
06:36PM 34.1500 -84.2333 248° West 155 178 4,200 -300 Descending Atlanta TRACON
06:37PM 34.1333 -84.2833 248° West 153 176 4,100 -60 Descending Atlanta TRACON
06:38PM 34.1167 -84.3167 239° Southwest 131 151 4,100 -60 Level Atlanta TRACON
06:39PM 34.1000 -84.3667 248° West 157 181 4,000 -360 Descending Atlanta TRACON
06:40PM 34.0833 -84.4000 239° Southwest 110 127 3,400 -540 Descending Atlanta TRACON
06:41PM 34.0667 -84.4500 248° West 143 165 3,000 -480 Descending Atlanta TRACON
06:42PM 34.0500 -84.4833 239° Southwest 146 168 2,600 -420 Descending Atlanta TRACON
06:43PM 34.0333 -84.5167 239° Southwest 132 152 2,200 -360 Descending Atlanta TRACON
06:44PM 34.0167 -84.5500 239° Southwest 94 108 1,900 -360 Descending Atlanta TRACON
06:46PM 34.0000 -84.5833 244° Southwest  Level FlightAware Approximate
06:53PM 34.0132 -84.5971 244° Southwest  Level Estimated